Time;durP1;ratioP1;P1;durP2;ratioP2;P2;SDS_P1;SDS_P2;PMS_P1;PMS_P2;Temp;Humidity;BMP_temperature;BMP_pressure;BME280_temperature;BME280_humidity;BME280_pressure;Samples;Min_cycle;Max_cycle;Signal;HPM_P1;HPM_P2
2023/07/25 00:00:34;;;;;;;9.07;5.03;;;;;;;11.35;100.00;92253.31;2089272;28;20025;-83
2023/07/25 00:01:35;;;;;;;15.45;4.72;;;;;;;11.36;100.00;92249.44;2102898;28;20085;-83
2023/07/25 00:02:37;;;;;;;9.20;4.95;;;;;;;11.32;100.00;92254.94;2084330;28;20118;-84
2023/07/25 00:03:38;;;;;;;10.07;4.65;;;;;;;11.41;100.00;92251.53;2087671;28;20603;-83
2023/07/25 00:04:39;;;;;;;12.32;4.60;;;;;;;11.39;100.00;92240.53;2101110;28;20122;-81
2023/07/25 00:05:40;;;;;;;12.40;4.65;;;;;;;11.43;100.00;92251.84;2085695;28;20032;-81
2023/07/25 00:06:41;;;;;;;10.80;4.72;;;;;;;11.44;100.00;92239.97;2085438;28;20037;-81
2023/07/25 00:07:42;;;;;;;10.52;4.50;;;;;;;11.46;100.00;92234.94;2097856;28;20048;-80
2023/07/25 00:08:43;;;;;;;10.15;5.03;;;;;;;11.50;100.00;92242.78;2088419;28;20024;-80
2023/07/25 00:09:44;;;;;;;14.38;5.10;;;;;;;11.55;100.00;92232.25;2083919;28;20033;-82
2023/07/25 00:10:45;;;;;;;12.90;5.03;;;;;;;11.57;100.00;92235.22;2094771;28;20056;-81
2023/07/25 00:11:46;;;;;;;11.75;4.70;;;;;;;11.61;100.00;92237.78;2090075;28;20032;-81
2023/07/25 00:12:52;;;;;;;13.48;5.15;;;;;;;11.58;100.00;92233.28;2080824;28;20031;-80
2023/07/25 00:13:53;;;;;;;14.65;5.07;;;;;;;11.59;100.00;92235.53;2081770;28;20032;-81
2023/07/25 00:14:54;;;;;;;10.80;5.40;;;;;;;11.65;100.00;92230.34;2081041;28;20025;-80
2023/07/25 00:15:55;;;;;;;9.73;4.93;;;;;;;11.65;100.00;92230.34;2085457;28;20025;-81
2023/07/25 00:16:57;;;;;;;10.38;4.80;;;;;;;11.65;100.00;92232.28;2074624;28;20051;-80
2023/07/25 00:17:58;;;;;;;15.65;4.95;;;;;;;11.66;100.00;92223.78;2079893;28;20091;-80
2023/07/25 00:18:59;;;;;;;11.77;5.40;;;;;;;11.60;100.00;92230.94;2068837;28;20587;-81
2023/07/25 00:20:01;;;;;;;12.45;5.43;;;;;;;11.64;100.00;92222.78;2076263;28;20091;-80
2023/07/25 00:21:02;;;;;;;8.82;4.78;;;;;;;11.66;100.00;92223.06;2089168;28;20040;-81
2023/07/25 00:22:03;;;;;;;15.55;5.47;;;;;;;11.70;100.00;92224.41;2082232;28;20387;-80
2023/07/25 00:23:04;;;;;;;14.52;5.80;;;;;;;11.74;100.00;92222.31;2081514;28;20057;-82
2023/07/25 00:24:06;;;;;;;9.00;4.97;;;;;;;11.72;100.00;92216.69;2089617;28;20119;-81
2023/07/25 00:25:08;;;;;;;14.55;5.45;;;;;;;11.71;100.00;92217.84;2101113;28;20031;-81
2023/07/25 00:26:09;;;;;;;11.80;4.93;;;;;;;11.76;100.00;92221.88;2089346;28;20082;-81
2023/07/25 00:27:10;;;;;;;9.55;4.40;;;;;;;11.75;100.00;92217.72;2076772;28;20505;-79
2023/07/25 00:28:11;;;;;;;11.23;4.95;;;;;;;11.75;100.00;92215.78;2074892;28;20021;-81
2023/07/25 00:29:12;;;;;;;9.80;4.57;;;;;;;11.73;100.00;92218.16;2089767;28;20036;-80
2023/07/25 00:30:14;;;;;;;8.68;4.10;;;;;;;11.66;100.00;92231.09;2089322;28;20059;-81
2023/07/25 00:31:14;;;;;;;9.82;4.70;;;;;;;11.76;100.00;92227.97;2089918;28;20289;-81
2023/07/25 00:32:15;;;;;;;10.10;3.90;;;;;;;11.77;100.00;92236.75;2081013;28;20300;-81
2023/07/25 00:33:16;;;;;;;7.53;4.30;;;;;;;11.79;100.00;92229.75;2081297;28;20029;-81
2023/07/25 00:34:17;;;;;;;7.82;4.13;;;;;;;11.86;100.00;92220.75;2081493;28;20119;-81
2023/07/25 00:35:18;;;;;;;8.05;4.07;;;;;;;11.84;100.00;92221.16;2080782;28;20513;-81
2023/07/25 00:36:19;;;;;;;14.40;3.88;;;;;;;11.86;100.00;92220.00;2094560;28;20043;-82
2023/07/25 00:37:20;;;;;;;8.55;3.60;;;;;;;11.69;100.00;92222.19;2086707;28;20025;-82
2023/07/25 00:38:21;;;;;;;5.82;3.53;;;;;;;11.64;100.00;92223.50;2083018;28;20048;-84
2023/07/25 00:39:22;;;;;;;4.80;3.63;;;;;;;11.71;100.00;92220.53;2089793;28;20025;-84
2023/07/25 00:40:23;;;;;;;7.72;3.50;;;;;;;11.79;100.00;92223.66;2095249;28;20485;-84
2023/07/25 00:41:24;;;;;;;7.50;3.42;;;;;;;11.80;100.00;92225.16;2082106;28;20025;-83
2023/07/25 00:42:26;;;;;;;6.82;3.47;;;;;;;11.72;100.00;92223.94;2074555;28;20381;-81
2023/07/25 00:43:27;;;;;;;8.57;3.15;;;;;;;11.77;100.00;92212.66;2084970;28;20060;-81
2023/07/25 00:44:28;;;;;;;5.85;2.97;;;;;;;11.82;100.00;92212.06;2086457;28;20029;-82
2023/07/25 00:45:29;;;;;;;5.70;3.03;;;;;;;11.83;100.00;92208.97;2079888;28;20413;-81
2023/07/25 00:46:30;;;;;;;4.88;3.22;;;;;;;11.90;100.00;92207.22;2089193;28;20128;-80
2023/07/25 00:47:32;;;;;;;4.63;3.25;;;;;;;11.96;100.00;92200.06;2081043;28;20028;-81
2023/07/25 00:48:33;;;;;;;5.15;3.15;;;;;;;12.02;100.00;92201.69;2083652;28;20072;-81
2023/07/25 00:49:35;;;;;;;8.43;3.63;;;;;;;12.03;100.00;92194.41;2093242;28;20027;-81
2023/07/25 00:50:36;;;;;;;5.70;2.80;;;;;;;12.04;100.00;92193.97;2088920;28;20064;-81
2023/07/25 00:51:37;;;;;;;7.13;3.33;;;;;;;12.00;100.00;92185.31;2090142;28;20029;-81
2023/07/25 00:52:38;;;;;;;7.22;3.70;;;;;;;11.91;100.00;92173.88;2080672;28;20168;-81
2023/07/25 00:53:39;;;;;;;7.45;3.40;;;;;;;11.91;100.00;92184.59;2093837;28;20396;-80
2023/07/25 00:54:47;;;;;;;7.10;3.03;;;;;;;11.88;100.00;92172.09;2090452;28;20048;-80
2023/07/25 00:55:48;;;;;;;8.52;3.70;;;;;;;11.78;100.00;92179.34;2083065;28;20030;-80
2023/07/25 00:56:49;;;;;;;5.78;3.05;;;;;;;11.73;100.00;92190.66;2097089;28;20040;-81
2023/07/25 00:57:50;;;;;;;5.78;3.08;;;;;;;11.75;100.00;92186.31;2088828;28;20106;-81
2023/07/25 00:58:51;;;;;;;7.45;3.05;;;;;;;11.78;100.00;92201.50;2078618;28;20108;-80
2023/07/25 00:59:52;;;;;;;4.82;3.03;;;;;;;11.73;100.00;92201.38;2086252;28;20072;-81
2023/07/25 01:01:02;;;;;;;4.22;2.92;;;;;;;11.74;100.00;92200.16;2083216;28;20033;-81
2023/07/25 01:02:04;;;;;;;4.05;3.00;;;;;;;11.75;100.00;92198.97;2084966;28;20097;-81
2023/07/25 01:03:06;;;;;;;6.22;3.33;;;;;;;11.77;100.00;92197.34;2090331;28;20147;-81
2023/07/25 01:04:07;;;;;;;4.68;2.63;;;;;;;11.65;100.00;92192.88;2081895;28;20037;-80
2023/07/25 01:05:09;;;;;;;2.88;2.50;;;;;;;11.77;100.00;92186.63;2072639;28;20022;-80
2023/07/25 01:06:15;;;;;;;9.82;2.78;;;;;;;11.67;100.00;92185.13;2088941;28;20052;-82
2023/07/25 01:07:16;;;;;;;4.85;2.58;;;;;;;11.65;100.00;92190.19;2081893;28;20017;-81
2023/07/25 01:08:17;;;;;;;4.55;2.38;;;;;;;11.58;100.00;92179.75;2082581;28;20052;-79
2023/07/25 01:09:38;;;;;;;4.75;2.78;;;;;;;11.60;100.00;92180.09;2089152;28;20040;-83
2023/07/25 01:10:39;;;;;;;4.75;2.60;;;;;;;11.50;100.00;92189.25;2089165;28;20036;-81
2023/07/25 01:11:40;;;;;;;4.32;2.70;;;;;;;11.44;100.00;92185.69;2080689;28;20030;-81
2023/07/25 01:12:41;;;;;;;5.20;2.80;;;;;;;11.55;100.00;92175.31;2093237;28;20035;-81
2023/07/25 01:13:43;;;;;;;3.60;2.45;;;;;;;11.58;100.00;92169.81;2090573;28;20028;-81
2023/07/25 01:14:44;;;;;;;5.80;3.08;;;;;;;11.60;100.00;92162.09;2096981;28;20468;-81
2023/07/25 01:15:45;;;;;;;4.82;2.92;;;;;;;11.56;100.00;92174.13;2089224;28;20062;-80
2023/07/25 01:16:46;;;;;;;3.65;2.72;;;;;;;11.63;100.00;92173.06;2076304;28;20497;-80
2023/07/25 01:17:48;;;;;;;8.27;3.00;;;;;;;11.62;100.00;92177.69;2073292;28;20546;-80
2023/07/25 01:18:50;;;;;;;5.93;2.88;;;;;;;11.62;100.00;92176.94;2094640;28;20028;-80
2023/07/25 01:19:52;;;;;;;5.93;2.85;;;;;;;11.49;100.00;92172.47;2103408;28;20051;-80
2023/07/25 01:20:53;;;;;;;6.13;2.63;;;;;;;11.53;100.00;92172.34;2097357;28;20039;-82
2023/07/25 01:21:54;;;;;;;4.43;2.80;;;;;;;11.48;100.00;92176.34;2081724;28;20029;-80
2023/07/25 01:22:56;;;;;;;10.48;2.85;;;;;;;11.49;100.00;92166.38;2089212;28;20049;-81
2023/07/25 01:24:02;;;;;;;4.68;3.42;;;;;;;11.48;100.00;92168.31;2090360;28;20036;-82
2023/07/25 01:25:03;;;;;;;7.68;4.03;;;;;;;11.53;100.00;92161.63;2093267;28;20090;-82
2023/07/25 01:26:04;;;;;;;3.75;2.97;;;;;;;11.42;100.00;92161.31;2091605;28;20029;-81
2023/07/25 01:27:05;;;;;;;6.93;3.00;;;;;;;11.42;100.00;92164.75;2089317;28;20025;-81
2023/07/25 01:28:06;;;;;;;4.05;3.38;;;;;;;11.41;100.00;92173.94;2077318;28;20018;-80
2023/07/25 01:29:07;;;;;;;7.40;3.22;;;;;;;11.41;100.00;92163.22;2092759;28;20417;-83
2023/07/25 01:30:09;;;;;;;11.45;3.55;;;;;;;11.42;100.00;92172.78;2093008;28;20385;-83
2023/07/25 01:31:10;;;;;;;5.38;3.20;;;;;;;11.45;100.00;92169.19;2081325;28;20139;-84
2023/07/25 01:32:11;;;;;;;5.28;3.00;;;;;;;11.46;100.00;92164.59;2092004;28;20376;-81
2023/07/25 01:33:12;;;;;;;6.18;3.00;;;;;;;11.49;100.00;92167.13;2081114;28;20024;-81
2023/07/25 01:34:13;;;;;;;7.10;3.20;;;;;;;11.43;100.00;92173.50;2077174;28;20053;-81
2023/07/25 01:35:14;;;;;;;5.32;3.30;;;;;;;11.33;100.00;92164.72;2079679;28;20053;-81
2023/07/25 01:36:15;;;;;;;6.55;3.33;;;;;;;11.41;100.00;92162.50;2072820;28;20121;-82
2023/07/25 01:37:16;;;;;;;5.15;3.28;;;;;;;11.35;100.00;92155.06;2080403;28;20021;-81
2023/07/25 01:38:17;;;;;;;8.77;3.20;;;;;;;11.43;100.00;92157.47;2080437;28;20418;-80
2023/07/25 01:39:18;;;;;;;4.40;2.88;;;;;;;11.41;100.00;92165.91;2074036;28;20033;-81
2023/07/25 01:40:19;;;;;;;8.43;3.03;;;;;;;11.27;100.00;92153.84;2091119;28;20116;-80
2023/07/25 01:41:20;;;;;;;7.55;3.30;;;;;;;11.26;100.00;92143.59;2080514;28;20053;-81
2023/07/25 01:42:21;;;;;;;5.95;3.40;;;;;;;11.40;100.00;92139.59;2072867;28;20076;-81
2023/07/25 01:43:22;;;;;;;5.40;3.15;;;;;;;11.39;100.00;92135.44;2082376;28;20639;-81
2023/07/25 01:44:23;;;;;;;7.20;3.65;;;;;;;11.38;100.00;92129.34;2086284;28;20020;-81
2023/07/25 01:45:24;;;;;;;6.50;3.60;;;;;;;11.38;100.00;92131.28;2082029;28;20056;-80
2023/07/25 01:46:24;;;;;;;5.82;3.05;;;;;;;11.38;100.00;92133.97;2095962;28;20028;-81
2023/07/25 01:47:26;;;;;;;3.88;2.50;;;;;;;11.26;100.00;92146.28;2081022;28;20032;-81
2023/07/25 01:48:26;;;;;;;7.38;2.95;;;;;;;11.24;100.00;92146.72;2078514;28;20029;-81
2023/07/25 01:49:27;;;;;;;5.63;2.78;;;;;;;11.23;100.00;92137.19;2083026;28;20033;-81
2023/07/25 01:50:30;;;;;;;5.80;3.03;;;;;;;11.25;100.00;92134.84;2070973;28;20112;-81
2023/07/25 01:51:31;;;;;;;6.80;3.30;;;;;;;11.19;100.00;92141.19;2069053;28;20034;-80
2023/07/25 01:52:32;;;;;;;5.47;3.03;;;;;;;11.24;100.00;92136.03;2084916;28;20497;-80
2023/07/25 01:53:33;;;;;;;4.97;3.05;;;;;;;11.25;100.00;92129.50;2082922;28;20497;-81
2023/07/25 01:54:34;;;;;;;7.28;2.97;;;;;;;11.30;100.00;92128.16;2095088;28;20024;-80
2023/07/25 01:55:36;;;;;;;4.63;2.78;;;;;;;11.30;100.00;92128.91;2087974;28;20477;-81
2023/07/25 01:56:37;;;;;;;5.05;3.35;;;;;;;11.25;100.00;92126.81;2080910;28;20041;-81
2023/07/25 01:57:38;;;;;;;5.57;3.85;;;;;;;11.17;100.00;92117.59;2095514;28;20029;-81
2023/07/25 01:58:39;;;;;;;4.70;2.80;;;;;;;11.18;100.00;92118.31;2080021;28;20068;-80
2023/07/25 01:59:40;;;;;;;6.95;3.00;;;;;;;11.12;100.00;92117.44;2072512;28;20021;-81
2023/07/25 02:00:41;;;;;;;2.97;2.72;;;;;;;11.12;100.00;92114.75;2072911;28;20018;-80
2023/07/25 02:01:42;;;;;;;7.93;2.85;;;;;;;11.20;100.00;92115.97;2076576;28;20084;-81
2023/07/25 02:02:43;;;;;;;7.28;2.95;;;;;;;11.14;100.00;92121.13;2088916;28;20061;-81
2023/07/25 02:03:44;;;;;;;7.10;2.97;;;;;;;11.22;100.00;92117.00;2093826;28;20033;-81
2023/07/25 02:04:46;;;;;;;5.28;3.10;;;;;;;11.20;100.00;92118.63;2089412;28;20452;-81
2023/07/25 02:05:47;;;;;;;4.78;3.05;;;;;;;11.18;100.00;92111.03;2084056;28;20025;-81
2023/07/25 02:06:48;;;;;;;3.92;2.90;;;;;;;11.19;100.00;92107.16;2084047;28;20028;-81
2023/07/25 02:07:50;;;;;;;4.47;2.75;;;;;;;11.21;100.00;92098.72;2089261;28;20021;-82
2023/07/25 02:08:51;;;;;;;6.22;3.40;;;;;;;11.15;100.00;92097.81;2079127;28;20140;-80
2023/07/25 02:09:52;;;;;;;5.60;3.05;;;;;;;11.05;100.00;92095.13;2081881;28;20018;-81
2023/07/25 02:10:53;;;;;;;4.30;2.60;;;;;;;11.09;100.00;92087.69;2089058;28;20025;-81
2023/07/25 02:11:54;;;;;;;4.53;3.13;;;;;;;11.09;100.00;92087.69;2088132;28;20105;-80
2023/07/25 02:12:56;;;;;;;7.65;2.85;;;;;;;11.10;100.00;92085.75;2105500;28;20027;-81
2023/07/25 02:13:57;;;;;;;5.63;2.90;;;;;;;11.00;100.00;92097.63;2087339;28;20032;-81
2023/07/25 02:14:57;;;;;;;6.60;3.10;;;;;;;11.04;100.00;92093.63;2083134;28;23789;-81
2023/07/25 02:15:58;;;;;;;3.63;3.00;;;;;;;10.92;100.00;92089.16;2072606;28;20033;-80
2023/07/25 02:16:59;;;;;;;6.32;3.08;;;;;;;10.98;100.00;92094.69;2072116;28;20113;-81
2023/07/25 02:18:00;;;;;;;4.85;2.67;;;;;;;10.92;100.00;92099.09;2080438;28;20018;-81
2023/07/25 02:19:01;;;;;;;15.77;3.53;;;;;;;10.97;100.00;92088.56;2091366;28;20127;-80
2023/07/25 02:20:02;;;;;;;6.80;2.97;;;;;;;11.03;100.00;92097.50;2075221;28;20362;-81
2023/07/25 02:22:10;;;;;;;;;;;;;;;10.76;100.00;92098.19;2140318;27;20474;-82
2023/07/25 02:23:11;;;;;;;4.97;2.80;;;;;;;10.78;100.00;92089.72;2136075;27;19911;-83
2023/07/25 02:24:12;;;;;;;4.50;2.70;;;;;;;10.83;100.00;92089.88;2121252;28;20023;-83
2023/07/25 02:25:13;;;;;;;4.65;3.20;;;;;;;10.83;100.00;92089.13;2117117;27;20015;-83
2023/07/25 02:26:14;;;;;;;5.60;2.90;;;;;;;10.81;100.00;92094.94;2113460;28;20020;-83
2023/07/25 02:27:14;;;;;;;4.40;3.05;;;;;;;10.79;100.00;92091.94;2112327;28;20023;-83
2023/07/25 02:28:16;;;;;;;6.68;2.70;;;;;;;10.76;100.00;92089.44;2112391;28;20461;-82
2023/07/25 02:29:17;;;;;;;3.08;2.38;;;;;;;10.72;100.00;92088.81;2125903;27;20047;-84
2023/07/25 02:30:20;;;;;;;4.43;2.58;;;;;;;10.71;100.00;92096.09;2114772;28;20156;-83
2023/07/25 02:31:21;;;;;;;4.03;2.92;;;;;;;10.71;100.00;92093.44;2113358;27;20447;-83
2023/07/25 02:32:22;;;;;;;3.47;2.67;;;;;;;10.79;100.00;92091.94;2130260;27;20034;-82
2023/07/25 02:33:23;;;;;;;3.15;2.85;;;;;;;10.76;100.00;92087.50;2120779;27;20023;-83
2023/07/25 02:34:23;;;;;;;4.53;2.50;;;;;;;10.82;100.00;92093.00;2112892;28;20024;-83
2023/07/25 02:35:24;;;;;;;8.13;2.90;;;;;;;10.79;100.00;92089.28;2110541;28;20028;-84
2023/07/25 02:36:25;;;;;;;5.65;3.00;;;;;;;10.76;100.00;92081.41;2119620;28;20106;-83
2023/07/25 02:37:26;;;;;;;4.95;3.10;;;;;;;10.74;100.00;92087.19;2130402;27;20759;-83
2023/07/25 02:38:27;;;;;;;6.07;2.53;;;;;;;10.72;100.00;92081.53;2112204;28;20036;-83
2023/07/25 02:39:28;;;;;;;6.47;2.65;;;;;;;10.72;100.00;92080.81;2097102;28;20040;-83
2023/07/25 02:40:29;;;;;;;5.60;2.95;;;;;;;10.66;100.00;92080.63;2120824;27;20121;-83
2023/07/25 02:41:30;;;;;;;6.28;2.97;;;;;;;10.69;100.00;92079.00;2138587;27;20035;-82
2023/07/25 02:42:31;;;;;;;4.93;3.03;;;;;;;10.66;100.00;92087.91;2121137;28;20156;-82
2023/07/25 02:43:32;;;;;;;4.03;2.40;;;;;;;10.55;100.00;92083.72;2110697;27;20181;-83
2023/07/25 02:44:33;;;;;;;2.92;2.63;;;;;;;10.58;100.00;92080.16;2121220;27;20407;-82
2023/07/25 02:45:34;;;;;;;6.45;2.60;;;;;;;10.56;100.00;92082.53;2112721;28;20031;-83
2023/07/25 02:46:35;;;;;;;5.43;2.83;;;;;;;10.57;100.00;92075.25;2120787;27;20023;-83
2023/07/25 02:47:36;;;;;;;7.80;2.90;;;;;;;10.63;100.00;92086.13;2125521;27;20027;-82
2023/07/25 02:48:37;;;;;;;5.05;2.70;;;;;;;10.58;100.00;92077.50;2123774;27;20039;-83
2023/07/25 02:49:38;;;;;;;6.57;2.70;;;;;;;10.62;100.00;92073.94;2113869;27;20167;-82
2023/07/25 02:50:39;;;;;;;3.85;2.85;;;;;;;10.60;100.00;92069.03;2119649;27;20031;-84
2023/07/25 02:51:40;;;;;;;6.20;3.35;;;;;;;10.58;100.00;92056.13;2129071;27;20076;-82
2023/07/25 02:52:42;;;;;;;7.00;2.63;;;;;;;10.53;100.00;92054.00;2112695;28;20093;-82
2023/07/25 02:53:42;;;;;;;6.22;2.83;;;;;;;10.62;100.00;92050.63;2100754;28;20463;-84
2023/07/25 02:54:44;;;;;;;2.97;2.50;;;;;;;10.60;100.00;92042.31;2103704;28;20028;-83
2023/07/25 02:55:44;;;;;;;3.30;2.90;;;;;;;10.52;100.00;92038.41;2121270;27;20463;-83
2023/07/25 02:56:45;;;;;;;5.75;3.10;;;;;;;10.57;100.00;92033.22;2111706;28;20019;-83
2023/07/25 02:57:46;;;;;;;6.25;2.85;;;;;;;10.58;100.00;92026.72;2120603;27;20076;-83
2023/07/25 02:58:48;;;;;;;5.28;2.88;;;;;;;10.67;100.00;92019.88;2121889;27;20050;-83
2023/07/25 02:59:49;;;;;;;6.50;3.15;;;;;;;10.81;100.00;92022.75;2120659;27;20025;-82
2023/07/25 03:00:50;;;;;;;3.70;2.78;;;;;;;10.80;100.00;92018.59;2134406;27;20715;-83
2023/07/25 03:01:51;;;;;;;3.90;2.80;;;;;;;10.89;100.00;92017.09;2129818;27;20027;-82
2023/07/25 03:02:52;;;;;;;4.47;3.13;;;;;;;10.80;100.00;92021.28;2129820;27;20138;-83
2023/07/25 03:03:53;;;;;;;4.63;2.92;;;;;;;10.88;100.00;92008.34;2120465;27;20030;-84
2023/07/25 03:04:54;;;;;;;4.20;2.90;;;;;;;10.82;100.00;92013.53;2104375;28;20412;-83
2023/07/25 03:05:55;;;;;;;3.95;3.00;;;;;;;10.63;100.00;92014.72;2104252;28;20028;-84
2023/07/25 03:06:56;;;;;;;4.00;2.35;;;;;;;10.65;100.00;92001.63;2122970;27;20015;-82
2023/07/25 03:07:57;;;;;;;4.53;2.83;;;;;;;10.71;100.00;92009.81;2104088;28;20047;-82
2023/07/25 03:08:58;;;;;;;5.88;2.90;;;;;;;10.61;100.00;92011.72;2112071;27;20028;-84
2023/07/25 03:09:59;;;;;;;5.47;2.72;;;;;;;10.47;100.00;92026.38;2120236;27;20027;-83
2023/07/25 03:11:00;;;;;;;3.58;2.63;;;;;;;10.35;100.00;92024.56;2129712;27;20111;-82
2023/07/25 03:12:01;;;;;;;3.85;2.53;;;;;;;10.39;100.00;92038.53;2128154;27;20019;-83
2023/07/25 03:13:02;;;;;;;3.33;2.60;;;;;;;10.45;100.00;92030.69;2120020;28;20020;-82
2023/07/25 03:14:03;;;;;;;5.20;2.70;;;;;;;10.46;100.00;92032.19;2112335;28;20046;-83
2023/07/25 03:15:04;;;;;;;2.53;2.25;;;;;;;10.48;100.00;92035.88;2111923;28;20024;-84
2023/07/25 03:16:05;;;;;;;5.72;2.60;;;;;;;10.55;100.00;92032.22;2112398;28;20035;-82
2023/07/25 03:17:06;;;;;;;3.40;2.40;;;;;;;10.53;100.00;92031.88;2120553;27;20402;-83
2023/07/25 03:18:07;;;;;;;4.30;2.50;;;;;;;10.41;100.00;92038.84;2120443;28;20109;-82
2023/07/25 03:19:08;;;;;;;4.78;2.78;;;;;;;10.37;100.00;92040.91;2112697;28;20106;-83
2023/07/25 03:20:10;;;;;;;5.30;2.40;;;;;;;10.39;100.00;92038.53;2115863;28;20103;-82
2023/07/25 03:21:10;;;;;;;3.33;1.95;;;;;;;10.50;100.00;92032.78;2111990;28;20202;-83
2023/07/25 03:22:11;;;;;;;4.13;2.30;;;;;;;10.46;100.00;92032.19;2117111;28;20015;-82
2023/07/25 03:23:12;;;;;;;2.58;1.98;;;;;;;10.51;100.00;92031.59;2097032;28;20039;-83
2023/07/25 03:24:13;;;;;;;6.20;2.78;;;;;;;10.45;100.00;92034.13;2112389;28;20043;-83
2023/07/25 03:25:14;;;;;;;3.08;2.08;;;;;;;10.46;100.00;92027.59;2113552;28;20026;-83
2023/07/25 03:26:16;;;;;;;2.85;2.05;;;;;;;10.48;100.00;92025.19;2119429;27;20023;-83
2023/07/25 03:27:18;;;;;;;3.15;2.38;;;;;;;10.58;100.00;92032.06;2112236;28;20020;-83
2023/07/25 03:28:19;;;;;;;5.55;3.55;;;;;;;10.43;100.00;92025.78;2116853;28;20592;-82
2023/07/25 03:29:19;;;;;;;5.88;2.40;;;;;;;10.46;100.00;92030.25;2115746;28;20049;-83
2023/07/25 03:30:20;;;;;;;4.03;2.20;;;;;;;10.51;100.00;92027.00;2120166;27;20015;-83
2023/07/25 03:31:21;;;;;;;5.30;2.50;;;;;;;10.38;100.00;92039.72;2120385;28;20020;-84
2023/07/25 03:32:22;;;;;;;7.65;2.80;;;;;;;10.39;100.00;92041.19;2116949;28;20027;-83
2023/07/25 03:33:23;;;;;;;5.50;2.50;;;;;;;10.50;100.00;92048.81;2115997;28;20027;-84
2023/07/25 03:34:25;;;;;;;3.63;2.30;;;;;;;10.49;100.00;92049.97;2115117;28;20563;-82
2023/07/25 03:35:26;;;;;;;3.67;2.47;;;;;;;10.52;100.00;92054.44;2114214;28;20032;-82
2023/07/25 03:36:37;;;;;;;5.03;2.67;;;;;;;10.55;100.00;92059.66;2109084;28;20057;-83
2023/07/25 03:37:38;;;;;;;5.30;2.60;;;;;;;10.52;100.00;92059.81;2107996;28;20497;-83
2023/07/25 03:38:39;;;;;;;3.90;2.72;;;;;;;10.61;100.00;92069.78;2111882;28;20387;-83
2023/07/25 03:39:40;;;;;;;3.67;2.60;;;;;;;10.59;100.00;92060.28;2104098;28;20059;-83
2023/07/25 03:40:41;;;;;;;3.22;2.40;;;;;;;10.62;100.00;92066.66;2089681;28;20542;-83
2023/07/25 03:41:42;;;;;;;2.70;2.40;;;;;;;10.62;100.00;92063.22;2092712;28;20021;-82
2023/07/25 03:42:43;;;;;;;4.45;2.50;;;;;;;10.68;100.00;92061.50;2114994;28;20024;-82
2023/07/25 03:43:44;;;;;;;4.20;2.40;;;;;;;10.68;100.00;92056.13;2110668;28;20127;-83
2023/07/25 03:44:45;;;;;;;5.90;2.67;;;;;;;10.55;100.00;92062.34;2113667;28;20061;-83
2023/07/25 03:45:46;;;;;;;4.93;2.60;;;;;;;10.43;100.00;92062.44;2115122;28;20119;-82
2023/07/25 03:46:47;;;;;;;2.88;2.20;;;;;;;10.51;100.00;92064.41;2109191;28;20825;-82
2023/07/25 03:47:48;;;;;;;6.22;2.35;;;;;;;10.46;100.00;92075.66;2103298;28;20035;-83
2023/07/25 03:48:49;;;;;;;2.78;2.20;;;;;;;10.25;100.00;92065.78;2096388;28;20052;-84
2023/07/25 03:49:51;;;;;;;3.80;2.38;;;;;;;10.38;100.00;92074.44;2097781;28;20035;-83
2023/07/25 03:50:52;;;;;;;2.58;2.38;;;;;;;10.42;100.00;92072.38;2114751;27;20041;-83
2023/07/25 03:51:53;;;;;;;3.17;2.28;;;;;;;10.45;100.00;92071.50;2114154;28;20020;-83
2023/07/25 03:52:54;;;;;;;2.55;2.35;;;;;;;10.46;100.00;92070.31;2106554;28;20066;-82
2023/07/25 03:53:55;;;;;;;2.60;2.22;;;;;;;10.43;100.00;92063.19;2106352;28;20032;-82
2023/07/25 03:54:56;;;;;;;4.45;2.47;;;;;;;10.42;100.00;92066.31;2100049;28;20017;-83
2023/07/25 03:55:57;;;;;;;6.82;2.80;;;;;;;10.42;100.00;92060.97;2098004;28;20017;-83
2023/07/25 03:56:58;;;;;;;3.17;2.65;;;;;;;10.48;100.00;92065.28;2100623;28;20029;-82
2023/07/25 03:57:59;;;;;;;3.35;2.10;;;;;;;10.47;100.00;92063.06;2097944;28;20385;-83
2023/07/25 03:59:00;;;;;;;3.00;2.40;;;;;;;10.43;100.00;92068.53;2109885;28;20052;-82
2023/07/25 04:00:01;;;;;;;2.85;2.35;;;;;;;10.43;100.00;92070.47;2106726;28;20028;-82
2023/07/25 04:01:02;;;;;;;3.72;2.08;;;;;;;10.51;100.00;92075.09;2098112;28;20074;-82
2023/07/25 04:02:04;;;;;;;2.53;2.10;;;;;;;10.49;100.00;92068.69;2105896;28;20020;-82
2023/07/25 04:03:05;;;;;;;2.40;2.20;;;;;;;10.41;100.00;92075.50;2106375;28;20055;-82
2023/07/25 04:04:06;;;;;;;2.83;2.50;;;;;;;10.44;100.00;92077.28;2103865;28;20031;-82
2023/07/25 04:05:08;;;;;;;3.08;2.33;;;;;;;10.47;100.00;92074.47;2105482;28;20099;-83
2023/07/25 04:06:09;;;;;;;2.75;2.40;;;;;;;10.49;100.00;92072.13;2114953;28;20028;-83
2023/07/25 04:07:10;;;;;;;4.68;2.78;;;;;;;10.44;100.00;92070.00;2106746;28;20028;-81
2023/07/25 04:08:11;;;;;;;3.53;1.95;;;;;;;10.37;100.00;92067.63;2099450;28;20469;-82
2023/07/25 04:09:12;;;;;;;4.05;2.53;;;;;;;10.30;100.00;92076.63;2114922;28;20027;-81
2023/07/25 04:10:13;;;;;;;3.42;2.38;;;;;;;10.26;100.00;92072.59;2110606;28;20099;-82
2023/07/25 04:11:15;;;;;;;2.65;2.33;;;;;;;10.25;100.00;92071.88;2114727;28;20024;-82
2023/07/25 04:12:15;;;;;;;5.30;2.38;;;;;;;10.15;100.00;92075.66;2106047;28;20023;-82
2023/07/25 04:13:16;;;;;;;3.03;2.22;;;;;;;10.25;100.00;92077.22;2106233;27;20721;-82
2023/07/25 04:14:17;;;;;;;4.13;2.50;;;;;;;10.29;100.00;92082.44;2114719;28;20486;-82
2023/07/25 04:15:18;;;;;;;5.63;2.50;;;;;;;10.34;100.00;92077.25;2105866;28;20028;-81
2023/07/25 04:16:19;;;;;;;2.80;2.30;;;;;;;10.31;100.00;92080.03;2105548;28;20056;-81
2023/07/25 04:17:20;;;;;;;2.92;2.28;;;;;;;10.37;100.00;92080.97;2106488;28;20024;-81
2023/07/25 04:18:21;;;;;;;3.13;2.40;;;;;;;10.33;100.00;92091.78;2097460;28;20461;-82
2023/07/25 04:19:22;;;;;;;3.70;2.13;;;;;;;10.32;100.00;92086.91;2089780;28;20032;-82
2023/07/25 04:20:23;;;;;;;3.17;2.45;;;;;;;10.34;100.00;92087.19;2097446;28;20021;-81
2023/07/25 04:21:24;;;;;;;2.40;1.95;;;;;;;10.36;100.00;92092.84;2105491;28;20028;-81
2023/07/25 04:22:25;;;;;;;3.97;2.30;;;;;;;10.35;100.00;92102.03;2097973;28;20123;-82
2023/07/25 04:23:26;;;;;;;4.47;2.30;;;;;;;10.32;100.00;92105.59;2097321;28;20102;-82
2023/07/25 04:24:27;;;;;;;3.25;2.45;;;;;;;10.43;100.00;92094.50;2106108;28;20424;-82
2023/07/25 04:25:29;;;;;;;6.07;2.30;;;;;;;10.37;100.00;92107.69;2112751;28;20031;-82
2023/07/25 04:26:30;;;;;;;2.97;2.00;;;;;;;10.43;100.00;92092.56;2106055;28;20396;-81
2023/07/25 04:27:31;;;;;;;3.45;2.05;;;;;;;10.42;100.00;92096.44;2114901;28;20107;-82
2023/07/25 04:28:32;;;;;;;2.90;1.95;;;;;;;10.40;100.00;92095.38;2113827;28;20027;-81
2023/07/25 04:29:33;;;;;;;1.85;1.70;;;;;;;10.43;100.00;92097.91;2114887;28;20080;-82
2023/07/25 04:30:34;;;;;;;5.03;1.90;;;;;;;10.36;100.00;92102.78;2114205;28;20024;-82
2023/07/25 04:31:35;;;;;;;1.98;1.70;;;;;;;10.45;100.00;92100.16;2107876;28;20031;-82
2023/07/25 04:32:36;;;;;;;2.42;1.73;;;;;;;10.51;100.00;92101.06;2106154;28;20083;-82
2023/07/25 04:33:37;;;;;;;1.48;1.27;;;;;;;10.59;100.00;92099.63;2113842;28;20061;-82
2023/07/25 04:34:40;;;;;;;2.63;2.05;;;;;;;10.73;100.00;92107.09;2114561;28;20541;-81
2023/07/25 04:35:45;;;;;;;1.70;1.60;;;;;;;10.76;100.00;92108.88;2106073;28;20182;-82
2023/07/25 04:36:46;;;;;;;1.95;1.75;;;;;;;10.82;100.00;92099.09;2111150;28;20089;-81
2023/07/25 04:37:46;;;;;;;2.33;1.95;;;;;;;10.79;100.00;92099.97;2106387;28;20461;-82
2023/07/25 04:38:47;;;;;;;2.92;1.90;;;;;;;10.84;100.00;92106.66;2104423;28;20052;-82
2023/07/25 04:39:48;;;;;;;2.35;1.67;;;;;;;10.76;100.00;92102.78;2106653;28;20483;-82
2023/07/25 04:40:49;;;;;;;2.30;1.80;;;;;;;10.84;100.00;92102.06;2106889;28;20464;-82
2023/07/25 04:41:50;;;;;;;3.05;1.63;;;;;;;10.85;100.00;92105.50;2106003;28;20131;-83
2023/07/25 04:42:51;;;;;;;2.45;1.92;;;;;;;10.94;100.00;92099.41;2110881;28;20499;-82
2023/07/25 04:43:52;;;;;;;2.85;1.70;;;;;;;10.97;100.00;92096.59;2106760;28;20027;-82
2023/07/25 04:44:53;;;;;;;4.00;2.05;;;;;;;10.98;100.00;92092.75;2099478;28;20462;-82
2023/07/25 04:45:55;;;;;;;2.33;1.77;;;;;;;10.92;100.00;92099.84;2114571;28;20543;-83